Time,TemperatureF,DewpointF,PressureIn,WindDirection,WindDirectionDegrees,WindSpeedMPH,WindSpeedGustMPH,Humidity,HourlyPrecipIn,Conditions,Clouds,dailyrainin,SolarRadiationWatts/m^2,SoftwareType,DateUTC
2013-07-01 00:02:00,69.0,59.0,-100.00,SE,129,2.0,8.0,71,0.00,,,0.00,0.000000,,2013-07-01 06:02:00,
2013-07-01 00:12:00,69.0,59.0,-100.00,SE,129,2.0,8.0,71,0.00,,,0.00,0.000000,,2013-07-01 06:12:00,
2013-07-01 00:43:00,64.0,58.0,-100.00,SW,218,2.0,6.0,82,0.00,,,0.00,0.000000,,2013-07-01 06:43:00,
2013-07-01 00:53:00,64.0,58.0,-100.00,SW,218,2.0,6.0,82,0.00,,,0.00,0.000000,,2013-07-01 06:53:00,
2013-07-01 01:01:00,64.0,58.0,-100.00,SW,218,2.0,6.0,82,0.00,,,0.00,0.000000,,2013-07-01 07:01:00,
2013-07-01 01:11:00,64.0,58.0,-100.00,SW,218,2.0,6.0,82,0.00,,,0.00,0.000000,,2013-07-01 07:11:00,
2013-07-01 01:43:00,62.0,56.0,-100.00,South,184,2.0,6.0,81,0.00,,,0.00,0.000000,,2013-07-01 07:43:00,
2013-07-01 01:53:00,62.0,56.0,-100.00,South,184,2.0,6.0,81,0.00,,,0.00,0.000000,,2013-07-01 07:53:00,
2013-07-01 02:01:00,62.0,56.0,-100.00,South,184,2.0,6.0,81,0.00,,,0.00,0.000000,,2013-07-01 08:01:00,
2013-07-01 02:11:00,62.0,56.0,-100.00,South,184,2.0,6.0,81,0.00,,,0.00,0.000000,,2013-07-01 08:11:00,
2013-07-01 02:43:00,60.0,55.0,-100.00,WSW,237,2.0,4.0,83,0.00,,,0.00,0.000000,,2013-07-01 08:43:00,
2013-07-01 02:52:00,60.0,55.0,-100.00,WSW,237,2.0,4.0,83,0.00,,,0.00,0.000000,,2013-07-01 08:52:00,
2013-07-01 03:02:00,60.0,55.0,-100.00,WSW,237,2.0,4.0,83,0.00,,,0.00,0.000000,,2013-07-01 09:02:00,
2013-07-01 03:11:00,60.0,55.0,-100.00,WSW,237,2.0,4.0,83,0.00,,,0.00,0.000000,,2013-07-01 09:11:00,
2013-07-01 03:43:00,56.0,53.0,-100.00,WNW,288,2.0,5.0,90,0.00,,,0.00,0.000000,,2013-07-01 09:43:00,
2013-07-01 03:53:00,56.0,53.0,-100.00,WNW,288,2.0,5.0,90,0.00,,,0.00,0.000000,,2013-07-01 09:53:00,
2013-07-01 04:03:00,56.0,53.0,-100.00,WNW,288,2.0,5.0,90,0.00,,,0.00,0.000000,,2013-07-01 10:03:00,
2013-07-01 04:11:00,56.0,53.0,-100.00,WNW,288,2.0,5.0,90,0.00,,,0.00,0.000000,,2013-07-01 10:11:00,
2013-07-01 04:43:00,57.0,56.0,-100.00,South,171,1.0,3.0,97,0.00,,,0.00,0.000000,,2013-07-01 10:43:00,
2013-07-01 04:52:00,57.0,56.0,-100.00,South,171,1.0,3.0,97,0.00,,,0.00,0.000000,,2013-07-01 10:52:00,
2013-07-01 05:02:00,57.0,56.0,-100.00,South,171,1.0,3.0,97,0.00,,,0.00,0.000000,,2013-07-01 11:02:00,
2013-07-01 05:11:00,57.0,56.0,-100.00,South,171,1.0,3.0,97,0.00,,,0.00,0.000000,,2013-07-01 11:11:00,
2013-07-01 05:33:00,56.0,54.0,-100.00,West,269,2.0,4.0,94,0.00,,,0.00,0.000000,,2013-07-01 11:33:00,
2013-07-01 05:43:00,56.0,54.0,-100.00,West,269,2.0,4.0,94,0.00,,,0.00,0.000000,,2013-07-01 11:43:00,
2013-07-01 05:52:00,56.0,54.0,-100.00,West,269,2.0,4.0,94,0.00,,,0.00,0.000000,,2013-07-01 11:52:00,
2013-07-01 06:01:00,56.0,54.0,-100.00,West,269,2.0,4.0,94,0.00,,,0.00,0.000000,,2013-07-01 12:01:00,
2013-07-01 06:11:00,56.0,54.0,-100.00,West,269,2.0,4.0,94,0.00,,,0.00,0.000000,,2013-07-01 12:11:00,
2013-07-01 06:33:00,55.0,55.0,-100.00,SE,144,2.0,5.0,100,0.00,,,-99.99,9.000000,,2013-07-01 12:33:00,
2013-07-01 06:43:00,55.0,55.0,-100.00,SE,144,2.0,5.0,100,0.00,,,-99.99,9.000000,,2013-07-01 12:43:00,
2013-07-01 06:53:00,55.0,55.0,-100.00,SE,144,2.0,5.0,100,0.00,,,-99.99,9.000000,,2013-07-01 12:53:00,
2013-07-01 07:01:00,55.0,55.0,-100.00,SE,144,2.0,5.0,100,0.00,,,-99.99,9.000000,,2013-07-01 13:01:00,
2013-07-01 07:12:00,55.0,55.0,-100.00,SE,144,2.0,5.0,100,0.00,,,-99.99,9.000000,,2013-07-01 13:12:00,
2013-07-01 07:43:00,60.0,57.0,-100.00,NNW,333,1.0,4.0,90,0.00,,,0.00,62.000000,,2013-07-01 13:43:00,
2013-07-01 07:53:00,60.0,57.0,-100.00,NNW,333,1.0,4.0,90,0.00,,,0.00,62.000000,,2013-07-01 13:53:00,
2013-07-01 08:01:00,60.0,57.0,-100.00,NNW,333,1.0,4.0,90,0.00,,,0.00,62.000000,,2013-07-01 14:01:00,
2013-07-01 08:11:00,60.0,57.0,-100.00,NNW,333,1.0,4.0,90,0.00,,,0.00,62.000000,,2013-07-01 14:11:00,
2013-07-01 08:34:00,69.0,59.0,-100.00,ENE,57,2.0,3.0,70,0.00,,,0.00,238.000000,,2013-07-01 14:34:00,
2013-07-01 08:43:00,69.0,59.0,-100.00,ENE,57,2.0,3.0,70,0.00,,,0.00,238.000000,,2013-07-01 14:43:00,
2013-07-01 08:53:00,69.0,59.0,-100.00,ENE,57,2.0,3.0,70,0.00,,,0.00,238.000000,,2013-07-01 14:53:00,
2013-07-01 09:01:00,69.0,59.0,-100.00,ENE,57,2.0,3.0,70,0.00,,,0.00,238.000000,,2013-07-01 15:01:00,
2013-07-01 09:11:00,69.0,59.0,-100.00,ENE,57,2.0,3.0,70,0.00,,,0.00,238.000000,,2013-07-01 15:11:00,
2013-07-01 09:53:00,77.0,60.0,-100.00,South,169,3.0,6.0,55,0.00,,,0.00,441.000000,,2013-07-01 15:53:00,
2013-07-01 10:01:00,77.0,60.0,-100.00,South,169,3.0,6.0,55,0.00,,,0.00,441.000000,,2013-07-01 16:01:00,
2013-07-01 10:11:00,77.0,60.0,-100.00,South,169,3.0,6.0,55,0.00,,,0.00,441.000000,,2013-07-01 16:11:00,
2013-07-01 10:44:00,82.0,57.0,-100.00,NE,43,3.0,6.0,43,0.00,,,0.00,644.000000,,2013-07-01 16:44:00,
2013-07-01 10:53:00,82.0,57.0,-100.00,NE,43,3.0,6.0,43,0.00,,,0.00,644.000000,,2013-07-01 16:53:00,
2013-07-01 11:02:00,82.0,57.0,-100.00,NE,43,3.0,6.0,43,0.00,,,0.00,644.000000,,2013-07-01 17:02:00,
2013-07-01 11:12:00,82.0,57.0,-100.00,NE,43,3.0,6.0,43,0.00,,,0.00,644.000000,,2013-07-01 17:12:00,
2013-07-01 11:53:00,88.0,59.0,-100.00,ESE,115,2.0,6.0,38,0.00,,,0.00,794.000000,,2013-07-01 17:53:00,
2013-07-01 12:02:00,88.0,59.0,-100.00,ESE,115,2.0,6.0,38,0.00,,,0.00,794.000000,,2013-07-01 18:02:00,
2013-07-01 12:11:00,88.0,59.0,-100.00,ESE,115,2.0,6.0,38,0.00,,,0.00,794.000000,,2013-07-01 18:11:00,
2013-07-01 12:44:00,89.0,59.0,-100.00,NNE,28,4.0,7.0,37,0.00,,,0.00,951.000000,,2013-07-01 18:44:00,
2013-07-01 12:53:00,89.0,59.0,-100.00,NNE,28,4.0,7.0,37,0.00,,,0.00,951.000000,,2013-07-01 18:53:00,
2013-07-01 13:01:00,89.0,59.0,-100.00,NNE,28,4.0,7.0,37,0.00,,,0.00,951.000000,,2013-07-01 19:01:00,
2013-07-01 13:11:00,89.0,59.0,-100.00,NNE,28,4.0,7.0,37,0.00,,,0.00,951.000000,,2013-07-01 19:11:00,
2013-07-01 13:44:00,93.0,58.0,-100.00,NNE,30,3.0,5.0,31,0.00,,,0.00,1048.000000,,2013-07-01 19:44:00,
2013-07-01 13:53:00,93.0,58.0,-100.00,NNE,30,3.0,5.0,31,0.00,,,0.00,1048.000000,,2013-07-01 19:53:00,
2013-07-01 14:01:00,93.0,58.0,-100.00,NNE,30,3.0,5.0,31,0.00,,,0.00,1048.000000,,2013-07-01 20:01:00,
2013-07-01 14:11:00,93.0,58.0,-100.00,NNE,30,3.0,5.0,31,0.00,,,0.00,1048.000000,,2013-07-01 20:11:00,
2013-07-01 14:34:00,97.0,59.0,-100.00,North,7,3.0,5.0,29,0.00,,,0.00,1091.000000,,2013-07-01 20:34:00,
2013-07-01 14:43:00,97.0,59.0,-100.00,North,7,3.0,5.0,29,0.00,,,0.00,1091.000000,,2013-07-01 20:43:00,
2013-07-01 14:52:00,97.0,59.0,-100.00,North,7,3.0,5.0,29,0.00,,,0.00,1091.000000,,2013-07-01 20:52:00,
2013-07-01 15:01:00,97.0,59.0,-100.00,North,7,3.0,5.0,29,0.00,,,0.00,1091.000000,,2013-07-01 21:01:00,
2013-07-01 15:11:00,97.0,59.0,-100.00,North,7,3.0,5.0,29,0.00,,,0.00,1091.000000,,2013-07-01 21:11:00,
2013-07-01 15:44:00,101.0,60.0,-100.00,NNW,346,3.0,6.0,26,0.00,,,0.00,1082.000000,,2013-07-01 21:44:00,
2013-07-01 15:53:00,101.0,60.0,-100.00,NNW,346,3.0,6.0,26,0.00,,,0.00,1082.000000,,2013-07-01 21:53:00,
2013-07-01 16:01:00,101.0,60.0,-100.00,NNW,346,3.0,6.0,26,0.00,,,0.00,1082.000000,,2013-07-01 22:01:00,
2013-07-01 16:11:00,101.0,60.0,-100.00,NNW,346,3.0,6.0,26,0.00,,,0.00,1082.000000,,2013-07-01 22:11:00,
2013-07-01 16:43:00,100.0,58.0,-100.00,North,8,5.0,8.0,25,0.00,,,0.00,1001.000000,,2013-07-01 22:43:00,
2013-07-01 16:53:00,100.0,58.0,-100.00,North,8,5.0,8.0,25,0.00,,,0.00,1001.000000,,2013-07-01 22:53:00,
2013-07-01 17:01:00,100.0,58.0,-100.00,North,8,5.0,8.0,25,0.00,,,0.00,1001.000000,,2013-07-01 23:01:00,
2013-07-01 17:11:00,100.0,58.0,-100.00,North,8,5.0,8.0,25,0.00,,,0.00,1001.000000,,2013-07-01 23:11:00,
2013-07-01 17:44:00,102.0,57.0,-100.00,North,352,3.0,7.0,23,0.00,,,0.00,885.000000,,2013-07-01 23:44:00,
2013-07-01 17:53:00,102.0,57.0,-100.00,North,352,3.0,7.0,23,0.00,,,0.00,885.000000,,2013-07-01 23:53:00,
2013-07-01 18:01:00,102.0,57.0,-100.00,North,352,3.0,7.0,23,0.00,,,0.00,885.000000,,2013-07-02 00:01:00,
2013-07-01 18:11:00,102.0,57.0,-100.00,North,352,3.0,7.0,23,0.00,,,0.00,885.000000,,2013-07-02 00:11:00,
2013-07-01 18:43:00,96.0,54.0,-100.00,NNE,12,6.0,10.0,25,0.00,,,0.00,716.000000,,2013-07-02 00:43:00,
2013-07-01 18:53:00,96.0,54.0,-100.00,NNE,12,6.0,10.0,25,0.00,,,0.00,716.000000,,2013-07-02 00:53:00,
2013-07-01 19:01:00,96.0,54.0,-100.00,NNE,12,6.0,10.0,25,0.00,,,0.00,716.000000,,2013-07-02 01:01:00,
2013-07-01 19:11:00,96.0,54.0,-100.00,NNE,12,6.0,10.0,25,0.00,,,0.00,716.000000,,2013-07-02 01:11:00,
2013-07-01 19:43:00,92.0,55.0,-100.00,NNE,12,6.0,13.0,29,0.00,,,0.00,507.000000,,2013-07-02 01:43:00,
2013-07-01 19:53:00,92.0,55.0,-100.00,NNE,12,6.0,13.0,29,0.00,,,0.00,507.000000,,2013-07-02 01:53:00,
2013-07-01 20:01:00,92.0,55.0,-100.00,NNE,12,6.0,13.0,29,0.00,,,0.00,507.000000,,2013-07-02 02:01:00,
2013-07-01 20:11:00,92.0,55.0,-100.00,NNE,12,6.0,13.0,29,0.00,,,0.00,507.000000,,2013-07-02 02:11:00,
2013-07-01 20:34:00,88.0,57.0,-100.00,NNW,341,2.0,10.0,35,0.00,,,0.00,286.000000,,2013-07-02 02:34:00,
2013-07-01 20:43:00,88.0,57.0,-100.00,NNW,341,2.0,10.0,35,0.00,,,0.00,286.000000,,2013-07-02 02:43:00,
2013-07-01 20:53:00,88.0,57.0,-100.00,NNW,341,2.0,10.0,35,0.00,,,0.00,286.000000,,2013-07-02 02:53:00,
2013-07-01 21:01:00,88.0,57.0,-100.00,NNW,341,2.0,10.0,35,0.00,,,0.00,286.000000,,2013-07-02 03:01:00,
2013-07-01 21:11:00,88.0,57.0,-100.00,NNW,341,2.0,10.0,35,0.00,,,0.00,286.000000,,2013-07-02 03:11:00,
2013-07-01 23:01:00,73.0,58.0,-100.00,ESE,111,3.0,6.0,60,-99.99,,,0.00,3.000000,,2013-07-02 05:01:00,
2013-07-01 23:11:00,73.0,58.0,-100.00,ESE,111,3.0,6.0,60,-99.99,,,0.00,3.000000,,2013-07-02 05:11:00,
2013-07-01 23:43:00,68.0,56.0,-100.00,ESE,122,3.0,5.0,66,0.00,,,0.00,0.000000,,2013-07-02 05:43:00,